createdAt,value
2022-11-16T00:02:12.740Z,100558.63
2022-11-16T00:04:39.123Z,100557.75
2022-11-16T00:07:06.192Z,100549.00
2022-11-16T00:09:32.963Z,100549.00
2022-11-16T00:12:01.000Z,100541.13
2022-11-16T00:14:28.801Z,100546.34
2022-11-16T00:16:55.486Z,100540.22
2022-11-16T00:19:21.987Z,100543.75
2022-11-16T00:21:48.310Z,100542.88
2022-11-16T00:24:16.013Z,100541.13
2022-11-16T00:26:42.389Z,100535.88
2022-11-16T00:29:19.353Z,100535.00
2022-11-16T00:31:46.060Z,100541.13
2022-11-16T00:34:12.826Z,100540.25
2022-11-16T00:36:39.367Z,100543.81
2022-11-16T00:39:05.664Z,100548.19
2022-11-16T00:41:31.957Z,100543.84
2022-11-16T00:43:58.234Z,100539.47
2022-11-16T00:46:24.558Z,100538.59
2022-11-16T00:48:50.840Z,100536.81
2022-11-16T00:51:17.123Z,100536.81
2022-11-16T00:53:43.425Z,100531.59
2022-11-16T00:56:09.713Z,100539.53
2022-11-16T00:58:36.257Z,100524.63
2022-11-16T01:01:03.951Z,100532.47
2022-11-16T01:03:30.279Z,100523.75
2022-11-16T01:06:03.133Z,100523.75
2022-11-16T01:08:29.440Z,100510.63
2022-11-16T01:10:55.752Z,100502.75
2022-11-16T01:13:22.047Z,100518.50
2022-11-16T01:15:48.453Z,100513.25
2022-11-16T01:18:14.731Z,100514.09
2022-11-16T01:20:41.253Z,100515.88
2022-11-16T01:23:07.599Z,100503.56
2022-11-16T01:25:33.952Z,100510.63
2022-11-16T01:28:00.254Z,100507.09
2022-11-16T01:30:26.576Z,100509.69
2022-11-16T01:32:52.862Z,100504.44
2022-11-16T01:35:19.190Z,100500.94
2022-11-16T01:37:45.614Z,100507.06
2022-11-16T01:40:12.786Z,100493.91
2022-11-16T01:42:39.133Z,100496.59
2022-11-16T01:45:16.733Z,100489.50
2022-11-16T01:47:43.350Z,100477.25
2022-11-16T01:50:12.650Z,100474.63
2022-11-16T01:52:42.695Z,100465.84
2022-11-16T01:55:09.869Z,100464.06
2022-11-16T01:57:37.868Z,100464.94
2022-11-16T02:00:06.591Z,100468.44
2022-11-16T02:02:33.000Z,100462.28
2022-11-16T02:04:59.690Z,100463.16
2022-11-16T02:08:03.031Z,100465.75
2022-11-16T02:10:48.297Z,100457.00
2022-11-16T02:13:14.629Z,100459.66
2022-11-16T02:15:46.227Z,100465.75
2022-11-16T02:18:31.540Z,100462.22
2022-11-16T02:20:58.073Z,100457.84
2022-11-16T02:23:27.441Z,100447.31
2022-11-16T02:26:02.993Z,100446.41
2022-11-16T02:28:44.374Z,100450.81
2022-11-16T02:31:13.986Z,100462.19
2022-11-16T02:33:41.527Z,100462.16
2022-11-16T02:36:10.037Z,100444.63
2022-11-16T02:38:38.846Z,100443.72
2022-11-16T02:41:08.362Z,100442.00
2022-11-16T02:43:38.417Z,100435.88
2022-11-16T02:46:08.463Z,100436.78
2022-11-16T02:48:36.904Z,100442.00
2022-11-16T02:51:06.387Z,100436.72
2022-11-16T02:53:36.862Z,100434.06
2022-11-16T02:56:03.166Z,100434.94
2022-11-16T02:58:29.963Z,100426.19
2022-11-16T03:01:00.493Z,100431.47
2022-11-16T03:03:29.582Z,100425.28
2022-11-16T03:06:04.613Z,100426.19
2022-11-16T03:08:33.571Z,100414.81
2022-11-16T03:11:21.685Z,100416.53
2022-11-16T03:13:48.562Z,100421.78
2022-11-16T03:16:24.613Z,100418.31
2022-11-16T03:18:52.398Z,100414.81
2022-11-16T03:21:25.766Z,100413.91
2022-11-16T03:23:52.141Z,100413.03
2022-11-16T03:26:21.101Z,100416.53
2022-11-16T03:28:55.233Z,100410.44
2022-11-16T03:31:26.590Z,100407.81
2022-11-16T03:33:56.083Z,100399.03
2022-11-16T03:36:33.665Z,100407.81
2022-11-16T03:39:02.781Z,100400.78
2022-11-16T03:41:31.045Z,100388.59
2022-11-16T03:43:58.341Z,100393.81
2022-11-16T03:46:24.791Z,100396.41
2022-11-16T03:48:56.761Z,100410.44
2022-11-16T03:51:23.103Z,100412.19
2022-11-16T03:53:49.373Z,100402.53
2022-11-16T03:56:15.666Z,100404.28
2022-11-16T03:58:41.967Z,100408.66
2022-11-16T04:01:08.374Z,100399.03
2022-11-16T04:03:34.721Z,100401.66
2022-11-16T04:06:19.624Z,100406.91
2022-11-16T04:09:04.474Z,100400.75
2022-11-16T04:14:47.498Z,100413.94
2022-11-16T04:17:33.240Z,100408.66
2022-11-16T04:20:18.571Z,100414.78
2022-11-16T04:23:23.750Z,100411.28
2022-11-16T04:25:51.260Z,100420.03
2022-11-16T04:28:19.760Z,100424.41
2022-11-16T04:31:09.465Z,100439.31
2022-11-16T04:33:54.757Z,100435.78
2022-11-16T04:36:40.170Z,100446.31
2022-11-16T04:39:06.888Z,100435.81
2022-11-16T04:41:52.035Z,100441.09
2022-11-16T04:44:18.715Z,100433.19
2022-11-16T04:47:03.942Z,100431.47
2022-11-16T04:49:30.209Z,100432.28
2022-11-16T04:51:56.494Z,100440.16
2022-11-16T04:54:23.035Z,100440.16
2022-11-16T04:56:49.362Z,100444.56
2022-11-16T04:59:15.739Z,100437.56
2022-11-16T05:02:00.783Z,100431.34
2022-11-16T05:04:27.186Z,100437.41
2022-11-16T05:06:53.520Z,100441.78
2022-11-16T05:09:19.974Z,100446.13
2022-11-16T05:11:46.294Z,100436.47
2022-11-16T05:14:12.655Z,100432.13
2022-11-16T05:16:38.924Z,100423.34
2022-11-16T05:19:24.036Z,100431.22
2022-11-16T05:21:50.315Z,100425.97
2022-11-16T05:24:34.625Z,100422.44
2022-11-16T05:27:05.372Z,100431.22
2022-11-16T05:29:31.768Z,100425.97
2022-11-16T05:31:58.546Z,100423.34
2022-11-16T05:34:24.915Z,100421.59
2022-11-16T05:36:51.352Z,100419.78
2022-11-16T05:39:17.788Z,100417.16
2022-11-16T05:41:44.071Z,100415.38
2022-11-16T05:44:10.406Z,100420.63
2022-11-16T05:46:36.716Z,100421.56
2022-11-16T05:49:03.367Z,100419.78
2022-11-16T05:51:29.661Z,100420.69
2022-11-16T05:53:55.938Z,100423.34
2022-11-16T05:56:22.250Z,100425.97
2022-11-16T05:58:48.554Z,100418.13
2022-11-16T06:01:14.844Z,100419.88
2022-11-16T06:03:41.126Z,100420.78
2022-11-16T06:06:07.496Z,100426.00
2022-11-16T06:08:34.092Z,100421.66
2022-11-16T06:11:01.819Z,100428.63
2022-11-16T06:13:28.107Z,100428.63
2022-11-16T06:15:54.387Z,100427.78
2022-11-16T06:18:20.913Z,100431.34
2022-11-16T06:20:47.674Z,100435.72
2022-11-16T06:23:14.318Z,100437.44
2022-11-16T06:25:40.593Z,100430.50
2022-11-16T06:28:08.273Z,100433.97
2022-11-16T06:30:34.843Z,100436.59
2022-11-16T06:33:01.160Z,100432.22
2022-11-16T06:35:27.467Z,100434.84
2022-11-16T06:37:53.751Z,100439.22
2022-11-16T06:40:20.045Z,100435.72
2022-11-16T06:42:46.323Z,100428.72
2022-11-16T06:45:12.612Z,100427.84
2022-11-16T06:47:39.023Z,100432.22
2022-11-16T06:50:05.488Z,100431.34
2022-11-16T06:52:31.842Z,100433.13
2022-11-16T06:54:58.124Z,100436.66
2022-11-16T06:57:24.566Z,100440.16
2022-11-16T06:59:50.838Z,100433.16
2022-11-16T07:02:17.120Z,100431.41
2022-11-16T07:04:44.337Z,100434.91
2022-11-16T07:07:10.687Z,100431.41
2022-11-16T07:09:37.003Z,100422.66
2022-11-16T07:12:04.127Z,100431.38
2022-11-16T07:14:30.393Z,100433.13
2022-11-16T07:17:00.353Z,100435.78
2022-11-16T07:19:27.405Z,100437.59
2022-11-16T07:21:53.758Z,100435.00
2022-11-16T07:24:20.060Z,100440.25
2022-11-16T07:26:46.344Z,100440.25
2022-11-16T07:29:13.741Z,100433.22
2022-11-16T07:31:40.015Z,100434.13
2022-11-16T07:34:06.292Z,100435.00
2022-11-16T07:36:32.578Z,100430.63
2022-11-16T07:38:58.893Z,100436.78
2022-11-16T07:41:25.219Z,100432.47
2022-11-16T07:43:53.331Z,100442.09
2022-11-16T07:46:45.869Z,100442.97
2022-11-16T07:49:11.367Z,100440.38
2022-11-16T07:51:38.144Z,100443.91
2022-11-16T07:54:04.430Z,100442.16
2022-11-16T07:56:30.805Z,100441.28
2022-11-16T07:58:57.242Z,100426.44
2022-11-16T08:01:23.542Z,100432.56
2022-11-16T08:03:52.338Z,100425.56
2022-11-16T08:06:21.005Z,100416.78
2022-11-16T08:08:47.303Z,100423.81
2022-11-16T08:11:13.684Z,100412.44
2022-11-16T08:13:41.011Z,100413.34
2022-11-16T08:16:09.348Z,100419.47
2022-11-16T08:18:36.882Z,100416.84
2022-11-16T08:21:04.150Z,100418.59
2022-11-16T08:23:31.179Z,100421.25
2022-11-16T08:25:58.082Z,100417.72
2022-11-16T08:28:24.371Z,100406.34
2022-11-16T08:30:53.942Z,100415.13
2022-11-16T08:33:21.423Z,100409.91
2022-11-16T08:35:48.259Z,100407.25
2022-11-16T08:38:14.825Z,100410.78
2022-11-16T08:40:41.813Z,100409.00
2022-11-16T08:43:08.132Z,100405.53
2022-11-16T08:45:34.517Z,100402.88
2022-11-16T08:48:03.934Z,100404.69
2022-11-16T08:50:33.467Z,100401.13
2022-11-16T08:53:06.180Z,100402.91
2022-11-16T08:55:33.242Z,100398.56
2022-11-16T08:57:59.547Z,100404.69
2022-11-16T09:00:25.816Z,100395.03
2022-11-16T09:02:52.102Z,100396.75
2022-11-16T09:05:18.548Z,100403.78
2022-11-16T09:07:45.751Z,100410.78
2022-11-16T09:10:12.189Z,100406.38
2022-11-16T09:12:38.943Z,100408.16
2022-11-16T09:15:05.953Z,100415.19
2022-11-16T09:17:32.523Z,100406.38
2022-11-16T09:19:58.847Z,100403.75
2022-11-16T09:22:25.152Z,100405.53
2022-11-16T09:24:51.467Z,100407.28
2022-11-16T09:27:17.824Z,100406.38
2022-11-16T09:29:44.111Z,100409.91
2022-11-16T09:32:10.402Z,100407.28
2022-11-16T09:34:36.898Z,100420.41
2022-11-16T09:37:03.216Z,100409.00
2022-11-16T09:39:32.417Z,100422.16
2022-11-16T09:42:11.862Z,100416.88
2022-11-16T09:44:53.549Z,100423.00
2022-11-16T09:47:24.798Z,100422.09
2022-11-16T09:50:01.620Z,100424.78
2022-11-16T09:52:32.508Z,100430.03
2022-11-16T09:55:01.368Z,100422.16
2022-11-16T09:57:31.199Z,100431.81
2022-11-16T10:00:01.702Z,100430.13
2022-11-16T10:02:44.056Z,100436.25
2022-11-16T10:05:17.965Z,100434.44
2022-11-16T10:07:49.122Z,100428.28
2022-11-16T10:10:16.662Z,100436.22
2022-11-16T10:12:48.986Z,100432.69
2022-11-16T10:15:33.802Z,100435.34
2022-11-16T10:18:03.229Z,100425.69
2022-11-16T10:20:47.791Z,100431.81
2022-11-16T10:23:30.265Z,100433.59
2022-11-16T10:26:11.232Z,100439.69
2022-11-16T10:28:47.016Z,100440.56
2022-11-16T10:31:25.830Z,100436.16
2022-11-16T10:33:54.345Z,100444.03
2022-11-16T10:36:26.948Z,100448.41
2022-11-16T10:38:55.353Z,100444.03
2022-11-16T10:41:21.645Z,100449.28
2022-11-16T10:43:48.334Z,100436.16
2022-11-16T10:46:25.253Z,100439.66
2022-11-16T10:49:16.314Z,100441.41
2022-11-16T10:51:43.075Z,100437.91
2022-11-16T10:54:16.209Z,100439.66
2022-11-16T10:56:45.401Z,100436.16
2022-11-16T10:59:15.636Z,100435.28
2022-11-16T11:01:54.647Z,100423.88
2022-11-16T11:04:21.001Z,100433.53
2022-11-16T11:06:48.984Z,100437.03
2022-11-16T11:09:20.379Z,100439.66
2022-11-16T11:12:24.092Z,100435.25
2022-11-16T11:15:07.731Z,100437.00
2022-11-16T11:17:35.435Z,100437.88
2022-11-16T11:20:04.362Z,100441.41
2022-11-16T11:22:31.827Z,100444.88
2022-11-16T11:24:58.606Z,100440.50
2022-11-16T11:27:28.863Z,100442.25
2022-11-16T11:29:58.585Z,100446.63
2022-11-16T11:32:34.327Z,100443.13
2022-11-16T11:35:01.875Z,100447.53
2022-11-16T11:37:33.979Z,100446.63
2022-11-16T11:40:09.248Z,100439.63
2022-11-16T11:42:38.690Z,100436.09
2022-11-16T11:45:09.041Z,100442.22
2022-11-16T11:47:57.293Z,100438.72
2022-11-16T11:50:41.182Z,100444.84
2022-11-16T11:53:10.272Z,100448.34
2022-11-16T11:55:36.634Z,100442.22
2022-11-16T11:58:04.416Z,100453.56
2022-11-16T12:00:36.427Z,100441.34
2022-11-16T12:03:17.757Z,100440.50
2022-11-16T12:05:50.047Z,100435.22
2022-11-16T12:08:28.559Z,100443.09
2022-11-16T12:11:09.844Z,100439.56
2022-11-16T12:13:55.055Z,100438.69
2022-11-16T12:16:28.393Z,100448.28
2022-11-16T12:18:57.740Z,100447.44
2022-11-16T12:21:27.145Z,100455.34
2022-11-16T12:23:56.468Z,100454.44
2022-11-16T12:26:37.866Z,100453.59
2022-11-16T12:29:12.717Z,100443.09
2022-11-16T12:31:39.213Z,100461.47
2022-11-16T12:34:13.864Z,100448.31
2022-11-16T12:36:55.574Z,100445.72
2022-11-16T12:39:54.401Z,100436.09
2022-11-16T12:42:38.865Z,100438.72
2022-11-16T12:45:15.556Z,100435.19
2022-11-16T12:47:47.725Z,100443.06
2022-11-16T12:50:32.803Z,100447.44
2022-11-16T12:53:08.354Z,100437.81
2022-11-16T12:55:45.744Z,100444.81
2022-11-16T12:58:20.935Z,100455.31
2022-11-16T13:00:59.751Z,100457.97
2022-11-16T13:03:33.544Z,100461.44
2022-11-16T13:06:03.318Z,100455.34
2022-11-16T13:08:35.491Z,100452.69
2022-11-16T13:11:10.462Z,100465.81
2022-11-16T13:13:38.983Z,100467.56
2022-11-16T13:16:06.571Z,100460.56
2022-11-16T13:18:34.601Z,100457.06
2022-11-16T13:21:13.087Z,100466.69
2022-11-16T13:23:39.333Z,100462.31
2022-11-16T13:26:24.517Z,100463.19
2022-11-16T13:28:56.259Z,100451.78
2022-11-16T13:31:34.557Z,100462.31
2022-11-16T13:34:06.690Z,100457.06
2022-11-16T13:36:36.972Z,100456.16
2022-11-16T13:39:04.503Z,100447.44
2022-11-16T13:41:34.617Z,100456.16
2022-11-16T13:44:02.416Z,100451.78
2022-11-16T13:46:59.857Z,100443.91
2022-11-16T13:49:26.268Z,100432.50
2022-11-16T13:51:53.988Z,100449.13
2022-11-16T13:57:46.475Z,100445.66
2022-11-16T14:00:20.243Z,100442.13
2022-11-16T14:02:47.291Z,100444.75
2022-11-16T14:05:36.064Z,100441.25
2022-11-16T14:08:22.340Z,100445.59
2022-11-16T14:10:48.611Z,100436.00
2022-11-16T14:13:30.017Z,100446.47
2022-11-16T14:16:14.811Z,100438.66
2022-11-16T14:18:41.669Z,100443.00
2022-11-16T14:21:36.892Z,100450.00
2022-11-16T14:24:20.914Z,100443.84
2022-11-16T14:27:05.681Z,100438.59
2022-11-16T14:29:50.443Z,100446.44
2022-11-16T14:32:19.465Z,100440.31
2022-11-16T14:34:47.188Z,100430.66
2022-11-16T14:37:22.397Z,100447.28
2022-11-16T14:39:53.275Z,100452.47
2022-11-16T14:42:28.565Z,100445.41
2022-11-16T14:45:02.414Z,100455.78
2022-11-16T14:47:30.565Z,100437.31
2022-11-16T14:49:57.414Z,100453.03
2022-11-16T14:52:44.527Z,100447.75
2022-11-16T14:55:17.762Z,100446.88
2022-11-16T14:57:44.078Z,100445.94
2022-11-16T15:00:18.576Z,100455.53
2022-11-16T15:02:51.423Z,100435.34
2022-11-16T15:05:20.156Z,100440.59
2022-11-16T15:07:49.658Z,100436.16
2022-11-16T15:10:18.116Z,100428.28
2022-11-16T15:12:51.414Z,100432.66
2022-11-16T15:15:21.402Z,100423.91
2022-11-16T15:17:59.713Z,100442.28
2022-11-16T15:20:27.436Z,100433.56
2022-11-16T15:22:57.840Z,100423.03
2022-11-16T15:25:25.641Z,100423.91
2022-11-16T15:27:52.371Z,100426.56
2022-11-16T15:30:20.361Z,100429.22
2022-11-16T15:32:47.940Z,100436.16
2022-11-16T15:35:22.524Z,100433.53
2022-11-16T15:37:59.537Z,100421.28
2022-11-16T15:40:26.020Z,100431.78
2022-11-16T15:42:53.204Z,100430.88
2022-11-16T15:45:24.803Z,100435.25
2022-11-16T15:47:54.515Z,100432.63
2022-11-16T15:50:23.280Z,100422.09
2022-11-16T15:52:55.276Z,100436.94
2022-11-16T15:55:28.686Z,100434.22
2022-11-16T15:58:18.232Z,100442.09
2022-11-16T16:00:47.404Z,100433.31
2022-11-16T16:03:17.155Z,100444.69
2022-11-16T16:05:43.700Z,100445.53
2022-11-16T16:08:27.081Z,100441.13
2022-11-16T16:11:04.368Z,100434.09
2022-11-16T16:13:33.293Z,100437.63
2022-11-16T16:16:18.663Z,100437.66
2022-11-16T16:18:45.305Z,100440.31
2022-11-16T16:21:12.487Z,100444.72
2022-11-16T16:23:51.757Z,100449.03
2022-11-16T16:26:18.265Z,100444.69
2022-11-16T16:28:44.570Z,100443.78
2022-11-16T16:31:11.493Z,100448.19
2022-11-16T16:33:38.221Z,100434.16
2022-11-16T16:36:04.799Z,100428.03
2022-11-16T16:38:31.109Z,100438.53
2022-11-16T16:41:02.498Z,100430.72
2022-11-16T16:43:29.504Z,100436.84
2022-11-16T16:45:56.194Z,100436.00
2022-11-16T16:48:22.868Z,100423.78
2022-11-16T16:50:49.500Z,100436.94
2022-11-16T16:53:15.852Z,100432.56
2022-11-16T16:55:43.110Z,100429.19
2022-11-16T16:58:13.232Z,100433.50
2022-11-16T17:00:40.023Z,100432.59
2022-11-16T17:03:06.324Z,100429.94
2022-11-16T17:05:33.895Z,100438.72
2022-11-16T17:08:00.713Z,100446.66
2022-11-16T17:10:27.000Z,100447.47
2022-11-16T17:12:53.921Z,100449.25
2022-11-16T17:15:20.293Z,100442.22
2022-11-16T17:17:46.722Z,100446.56
2022-11-16T17:20:13.347Z,100447.47
2022-11-16T17:22:41.679Z,100438.69
2022-11-16T17:25:08.537Z,100430.81
2022-11-16T17:27:34.864Z,100434.31
2022-11-16T17:30:01.153Z,100424.72
2022-11-16T17:32:27.444Z,100434.31
2022-11-16T17:34:53.796Z,100429.09
2022-11-16T17:37:20.191Z,100430.81
2022-11-16T17:39:46.518Z,100437.81
2022-11-16T17:42:12.988Z,100426.47
2022-11-16T17:44:39.354Z,100443.06
2022-11-16T17:47:05.726Z,100435.22
2022-11-16T17:49:32.011Z,100428.16
2022-11-16T17:51:58.328Z,100431.69
2022-11-16T17:54:24.614Z,100434.31
2022-11-16T17:56:50.922Z,100443.91
2022-11-16T17:59:17.250Z,100442.13
2022-11-16T18:01:43.590Z,100438.66
2022-11-16T18:04:09.945Z,100440.41
2022-11-16T18:06:36.486Z,100434.22
2022-11-16T18:09:02.872Z,100430.69
2022-11-16T18:11:29.255Z,100440.31
2022-11-16T18:14:00.469Z,100448.16
2022-11-16T18:16:28.308Z,100460.41
2022-11-16T18:18:55.962Z,100446.38
2022-11-16T18:21:22.262Z,100447.25
2022-11-16T18:23:48.578Z,100451.63
2022-11-16T18:26:16.164Z,100449.00
2022-11-16T18:28:44.455Z,100448.22
2022-11-16T18:31:12.102Z,100450.78
2022-11-16T18:33:38.840Z,100449.84
2022-11-16T18:36:06.091Z,100455.97
2022-11-16T18:38:32.656Z,100456.84
2022-11-16T18:41:02.795Z,100449.81
2022-11-16T18:43:29.093Z,100454.19
2022-11-16T18:45:55.384Z,100459.38
2022-11-16T18:48:21.671Z,100465.44
2022-11-16T18:50:47.984Z,100470.75
2022-11-16T18:53:14.278Z,100470.75
2022-11-16T18:55:40.749Z,100466.38
2022-11-16T18:58:22.833Z,100471.66
2022-11-16T19:00:53.607Z,100469.00
2022-11-16T19:03:19.897Z,100468.09
2022-11-16T19:05:46.264Z,100453.22
2022-11-16T19:08:14.130Z,100449.72
2022-11-16T19:10:40.443Z,100448.84
2022-11-16T19:13:07.138Z,100459.38
2022-11-16T19:15:33.835Z,100471.53
2022-11-16T19:18:21.767Z,100460.16
2022-11-16T19:20:46.974Z,100468.94
2022-11-16T19:23:13.262Z,100460.19
2022-11-16T19:25:39.648Z,100466.25
2022-11-16T19:28:05.930Z,100467.16
2022-11-16T19:30:32.234Z,100469.78
2022-11-16T19:32:59.498Z,100467.19
2022-11-16T19:35:26.013Z,100460.16
2022-11-16T19:37:52.327Z,100448.75
2022-11-16T19:40:23.684Z,100455.78
2022-11-16T19:42:52.556Z,100467.16
2022-11-16T19:45:18.843Z,100456.59
2022-11-16T19:47:45.185Z,100470.56
2022-11-16T19:50:11.801Z,100478.41
2022-11-16T19:52:38.253Z,100473.97
2022-11-16T19:55:04.706Z,100480.94
2022-11-16T19:57:31.005Z,100463.44
2022-11-16T19:59:57.324Z,100468.69
2022-11-16T20:02:23.648Z,100461.66
2022-11-16T20:04:49.934Z,100464.25
2022-11-16T20:07:18.090Z,100471.22
2022-11-16T20:09:46.339Z,100460.72
2022-11-16T20:12:15.584Z,100460.66
2022-11-16T20:14:42.346Z,100469.41
2022-11-16T20:17:08.796Z,100460.63
2022-11-16T20:19:35.166Z,100466.75
2022-11-16T20:22:01.453Z,100472.84
2022-11-16T20:24:27.900Z,100470.22
2022-11-16T20:26:54.232Z,100464.09
2022-11-16T20:29:20.601Z,100458.78
2022-11-16T20:31:47.037Z,100459.53
2022-11-16T20:34:17.402Z,100447.25
2022-11-16T20:36:44.881Z,100453.31
2022-11-16T20:39:15.045Z,100441.91
2022-11-16T20:41:42.838Z,100453.16
2022-11-16T20:44:15.956Z,100452.34
2022-11-16T20:46:44.230Z,100436.47
2022-11-16T20:49:10.794Z,100432.91
2022-11-16T20:51:37.140Z,100438.06
2022-11-16T20:54:03.847Z,100433.63
2022-11-16T20:56:30.283Z,100428.28
2022-11-16T20:58:58.090Z,100437.78
2022-11-16T21:01:28.334Z,100420.22
2022-11-16T21:03:55.750Z,100430.56
2022-11-16T21:06:22.072Z,100423.56
2022-11-16T21:08:48.485Z,100415.66
2022-11-16T21:11:19.446Z,100425.22
2022-11-16T21:14:04.397Z,100419.91
2022-11-16T21:16:31.234Z,100416.41
2022-11-16T21:18:57.675Z,100412.81
2022-11-16T21:21:24.980Z,100418.06
2022-11-16T21:23:51.771Z,100417.06
2022-11-16T21:26:19.553Z,100412.63
2022-11-16T21:28:46.077Z,100419.47
2022-11-16T21:31:13.980Z,100409.84
2022-11-16T21:33:40.267Z,100415.06
2022-11-16T21:36:07.887Z,100408.03
2022-11-16T21:38:34.524Z,100407.91
2022-11-16T21:41:01.084Z,100420.06
2022-11-16T21:43:27.813Z,100415.75
2022-11-16T21:46:00.675Z,100408.78
2022-11-16T21:48:26.945Z,100413.88
2022-11-16T21:51:02.728Z,100411.28
2022-11-16T21:53:29.154Z,100402.56
2022-11-16T21:55:55.471Z,100411.38
2022-11-16T21:58:21.756Z,100417.59
2022-11-16T22:00:48.142Z,100416.81
2022-11-16T22:03:15.142Z,100417.69
2022-11-16T22:06:00.097Z,100428.25
2022-11-16T22:08:26.380Z,100422.16
2022-11-16T22:10:52.988Z,100417.84
2022-11-16T22:13:19.727Z,100417.88
2022-11-16T22:15:46.115Z,100415.28
2022-11-16T22:18:13.325Z,100406.50
2022-11-16T22:20:39.791Z,100409.88
2022-11-16T22:23:06.088Z,100400.34
2022-11-16T22:25:32.482Z,100402.03
2022-11-16T22:28:19.691Z,100393.22
2022-11-16T22:30:50.070Z,100392.31
2022-11-16T22:33:17.847Z,100385.34
2022-11-16T22:35:46.421Z,100379.25
2022-11-16T22:38:12.712Z,100378.34
2022-11-16T22:40:38.989Z,100374.88
2022-11-16T22:43:05.271Z,100377.47
2022-11-16T22:45:31.567Z,100377.41
2022-11-16T22:47:57.926Z,100376.47
2022-11-16T22:50:24.303Z,100376.41
2022-11-16T22:52:50.594Z,100380.72
2022-11-16T22:55:16.985Z,100384.16
2022-11-16T22:57:43.253Z,100379.72
2022-11-16T23:00:09.954Z,100373.59
2022-11-16T23:02:36.252Z,100370.91
2022-11-16T23:05:02.526Z,100364.53
2022-11-16T23:07:28.819Z,100360.03
2022-11-16T23:09:55.113Z,100362.53
2022-11-16T23:12:40.022Z,100364.22
2022-11-16T23:15:27.822Z,100367.50
2022-11-16T23:17:54.107Z,100362.94
2022-11-16T23:20:38.831Z,100354.19
2022-11-16T23:23:37.571Z,100364.69
2022-11-16T23:26:24.325Z,100358.47
2022-11-16T23:28:50.672Z,100348.91
2022-11-16T23:31:16.956Z,100354.00
2022-11-16T23:33:46.055Z,100350.63
2022-11-16T23:36:12.660Z,100348.84
2022-11-16T23:38:39.319Z,100341.81
2022-11-16T23:41:24.967Z,100344.44
2022-11-16T23:44:00.642Z,100340.91
2022-11-16T23:46:27.945Z,100340.84
2022-11-16T23:48:54.325Z,100337.34
2022-11-16T23:51:20.652Z,100339.06
2022-11-16T23:53:46.940Z,100344.38
2022-11-16T23:56:13.226Z,100345.22
2022-11-16T23:58:39.536Z,100333.06
